createdAt,value
2019-05-01T00:00:32.297Z,6.63
2019-05-01T00:03:09.932Z,5.60
2019-05-01T00:05:38.985Z,6.00
2019-05-01T00:08:07.046Z,7.57
2019-05-01T00:10:35.109Z,7.37
2019-05-01T00:13:02.223Z,7.00
2019-05-01T00:15:31.552Z,6.37
2019-05-01T00:17:58.529Z,5.70
2019-05-01T00:20:25.486Z,6.17
2019-05-01T00:22:52.350Z,6.07
2019-05-01T00:25:19.445Z,6.93
2019-05-01T00:27:46.577Z,6.57
2019-05-01T00:30:15.757Z,7.17
2019-05-01T00:32:42.945Z,6.20
2019-05-01T00:35:09.936Z,6.37
2019-05-01T00:37:36.856Z,8.20
2019-05-01T00:40:03.949Z,6.10
2019-05-01T00:42:30.973Z,6.00
2019-05-01T00:44:58.107Z,5.93
2019-05-01T00:47:25.372Z,6.30
2019-05-01T00:49:52.701Z,5.67
2019-05-01T00:52:19.576Z,5.83
2019-05-01T00:54:48.744Z,7.07
2019-05-01T00:57:23.450Z,9.53
2019-05-01T00:59:58.390Z,6.00
2019-05-01T01:02:31.477Z,6.27
2019-05-01T01:04:58.618Z,6.37
2019-05-01T01:07:26.352Z,6.43
2019-05-01T01:09:53.261Z,7.23
2019-05-01T01:12:20.276Z,5.83
2019-05-01T01:14:47.264Z,6.17
2019-05-01T01:17:14.429Z,6.67
2019-05-01T01:19:41.214Z,8.33
2019-05-01T01:22:08.507Z,6.87
2019-05-01T01:24:35.387Z,7.87
2019-05-01T01:27:02.398Z,7.13
2019-05-01T01:29:29.639Z,6.80
2019-05-01T01:31:56.718Z,7.53
2019-05-01T01:34:24.173Z,6.30
2019-05-01T01:36:51.499Z,6.10
2019-05-01T01:39:18.878Z,8.33
2019-05-01T01:41:45.882Z,7.67
2019-05-01T01:44:19.153Z,6.37
2019-05-01T01:46:46.549Z,7.40
2019-05-01T01:49:14.022Z,5.93
2019-05-01T01:51:41.704Z,6.00
2019-05-01T01:54:08.877Z,7.40
2019-05-01T01:56:36.344Z,6.37
2019-05-01T01:59:03.867Z,7.47
2019-05-01T02:01:53.479Z,6.07
2019-05-01T02:04:33.135Z,6.10
2019-05-01T02:07:00.369Z,7.50
2019-05-01T02:09:27.614Z,6.03
2019-05-01T02:11:54.609Z,7.13
2019-05-01T02:14:21.632Z,7.23
2019-05-01T02:16:48.483Z,9.27
2019-05-01T02:19:15.471Z,7.07
2019-05-01T02:21:42.339Z,8.30
2019-05-01T02:24:09.473Z,9.03
2019-05-01T02:26:41.318Z,8.63
2019-05-01T02:29:16.272Z,7.83
2019-05-01T02:31:46.433Z,10.10
2019-05-01T02:34:14.868Z,11.30
2019-05-01T02:36:45.282Z,10.70
2019-05-01T02:39:13.252Z,10.00
2019-05-01T02:41:42.365Z,8.93
2019-05-01T02:44:26.270Z,8.70
2019-05-01T02:46:56.413Z,9.77
2019-05-01T02:49:34.825Z,8.07
2019-05-01T02:52:04.288Z,9.30
2019-05-01T02:54:32.267Z,11.27
2019-05-01T02:57:04.817Z,13.27
2019-05-01T02:59:32.364Z,13.30
2019-05-01T03:02:00.504Z,14.27
2019-05-01T03:04:28.090Z,10.00
2019-05-01T03:06:55.515Z,9.67
2019-05-01T03:09:22.916Z,9.43
2019-05-01T03:11:52.975Z,8.23
2019-05-01T03:14:22.658Z,7.93
2019-05-01T03:16:52.553Z,7.97
2019-05-01T03:19:41.879Z,10.33
2019-05-01T03:22:18.154Z,13.77
2019-05-01T03:24:45.131Z,8.33
2019-05-01T03:27:12.695Z,7.67
2019-05-01T03:29:40.194Z,8.03
2019-05-01T03:32:18.806Z,7.90
2019-05-01T03:34:36.522Z,8.03
2019-05-01T03:37:03.805Z,7.70
2019-05-01T03:39:31.316Z,9.40
2019-05-01T03:41:58.302Z,8.10
2019-05-01T03:44:25.369Z,7.83
2019-05-01T03:46:52.550Z,8.80
2019-05-01T03:49:19.742Z,8.43
2019-05-01T03:51:46.998Z,8.50
2019-05-01T03:54:14.407Z,8.77
2019-05-01T03:56:41.521Z,7.73
2019-05-01T03:59:08.893Z,7.70
2019-05-01T04:01:46.098Z,7.37
2019-05-01T04:04:19.425Z,8.27
2019-05-01T04:06:47.386Z,8.13
2019-05-01T04:09:14.597Z,8.77
2019-05-01T04:11:41.498Z,7.07
2019-05-01T04:14:08.880Z,8.13
2019-05-01T04:16:35.975Z,8.00
2019-05-01T04:19:03.920Z,8.50
2019-05-01T04:21:36.660Z,8.70
2019-05-01T04:24:03.867Z,8.87
2019-05-01T04:26:30.976Z,8.67
2019-05-01T04:29:29.774Z,8.50
2019-05-01T04:32:03.770Z,8.17
2019-05-01T04:34:54.055Z,8.93
2019-05-01T04:37:23.223Z,8.77
2019-05-01T04:39:50.689Z,10.67
2019-05-01T04:42:17.876Z,8.97
2019-05-01T04:44:44.837Z,9.60
2019-05-01T04:47:12.414Z,9.90
2019-05-01T04:49:39.694Z,8.60
2019-05-01T04:52:06.673Z,9.10
2019-05-01T04:54:34.054Z,8.20
2019-05-01T04:57:01.115Z,8.80
2019-05-01T04:59:28.175Z,8.67
2019-05-01T05:02:01.214Z,7.77
2019-05-01T05:04:28.597Z,8.57
2019-05-01T05:06:55.616Z,8.27
2019-05-01T05:09:44.247Z,8.50
2019-05-01T05:12:18.738Z,8.90
2019-05-01T05:14:50.177Z,8.07
2019-05-01T05:17:20.123Z,8.90
2019-05-01T05:19:47.124Z,6.63
2019-05-01T05:22:16.556Z,7.30
2019-05-01T05:24:44.424Z,7.80
2019-05-01T05:27:12.297Z,8.10
2019-05-01T05:29:39.512Z,6.87
2019-05-01T05:32:07.217Z,7.17
2019-05-01T05:34:35.034Z,7.20
2019-05-01T05:37:12.158Z,7.37
2019-05-01T05:39:44.457Z,6.87
2019-05-01T05:42:11.744Z,7.30
2019-05-01T05:44:38.925Z,8.27
2019-05-01T05:47:06.248Z,7.50
2019-05-01T05:49:33.621Z,7.87
2019-05-01T05:52:13.525Z,7.10
2019-05-01T05:55:00.802Z,9.00
2019-05-01T05:57:40.056Z,6.97
2019-05-01T06:00:18.043Z,7.92
2019-05-01T06:03:01.891Z,8.10
2019-05-01T06:05:47.193Z,7.35
2019-05-01T06:08:19.478Z,7.50
2019-05-01T06:11:05.535Z,7.72
2019-05-01T06:14:03.910Z,7.33
2019-05-01T06:17:09.237Z,7.17
2019-05-01T06:19:55.885Z,7.55
2019-05-01T06:22:53.061Z,8.25
2019-05-01T06:25:26.192Z,7.60
2019-05-01T06:27:53.829Z,7.47
2019-05-01T06:30:21.258Z,8.50
2019-05-01T06:32:48.298Z,7.37
2019-05-01T06:35:15.291Z,7.90
2019-05-01T06:38:04.701Z,7.72
2019-05-01T06:40:38.224Z,8.45
2019-05-01T06:43:07.572Z,8.98
2019-05-01T06:45:35.480Z,8.20
2019-05-01T06:48:04.522Z,9.10
2019-05-01T06:50:45.889Z,9.93
2019-05-01T06:53:12.983Z,9.33
2019-05-01T06:55:39.978Z,10.78
2019-05-01T06:58:07.215Z,11.83
2019-05-01T07:00:39.156Z,10.85
2019-05-01T07:03:10.113Z,10.25
2019-05-01T07:05:35.443Z,10.88
2019-05-01T07:08:03.306Z,13.18
2019-05-01T07:10:42.886Z,10.72
2019-05-01T07:13:04.910Z,15.03
2019-05-01T07:15:39.654Z,14.03
2019-05-01T07:18:18.787Z,15.40
2019-05-01T07:20:53.146Z,15.68
2019-05-01T07:23:21.434Z,16.17
2019-05-01T07:25:49.057Z,14.75
2019-05-01T07:28:16.057Z,13.45
2019-05-01T07:31:08.603Z,15.18
2019-05-01T07:33:36.069Z,13.40
2019-05-01T07:36:06.927Z,16.70
2019-05-01T07:38:33.085Z,15.55
2019-05-01T07:41:03.485Z,17.48
2019-05-01T07:43:50.416Z,14.75
2019-05-01T07:46:23.558Z,15.13
2019-05-01T07:48:50.857Z,17.15
2019-05-01T07:51:18.898Z,17.90
2019-05-01T07:53:46.091Z,16.80
2019-05-01T07:56:13.495Z,17.25
2019-05-01T07:58:40.765Z,17.25
2019-05-01T08:01:18.441Z,16.23
2019-05-01T08:03:45.417Z,17.70
2019-05-01T08:06:16.226Z,18.70
2019-05-01T08:08:41.077Z,22.15
2019-05-01T08:11:10.305Z,20.75
2019-05-01T08:13:37.069Z,19.98
2019-05-01T08:16:07.242Z,21.33
2019-05-01T08:18:42.107Z,21.52
2019-05-01T08:21:21.228Z,21.65
2019-05-01T08:23:48.589Z,21.23
2019-05-01T08:26:16.119Z,21.10
2019-05-01T08:29:11.732Z,22.37
2019-05-01T08:31:51.028Z,22.30
2019-05-01T08:34:20.657Z,22.17
2019-05-01T08:36:48.650Z,22.62
2019-05-01T08:39:15.580Z,23.95
2019-05-01T08:41:42.691Z,24.15
2019-05-01T08:44:09.682Z,25.27
2019-05-01T08:47:11.254Z,24.23
2019-05-01T08:49:50.660Z,24.45
2019-05-01T08:52:17.397Z,23.95
2019-05-01T08:54:44.398Z,26.40
2019-05-01T08:57:11.354Z,25.85
2019-05-01T08:59:38.472Z,26.10
2019-05-01T09:02:09.302Z,26.07
2019-05-01T09:04:34.297Z,25.82
2019-05-01T09:07:01.167Z,27.10
2019-05-01T09:09:28.346Z,27.52
2019-05-01T09:11:55.834Z,28.30
2019-05-01T09:14:23.192Z,26.40
2019-05-01T09:16:52.470Z,28.02
2019-05-01T09:19:19.146Z,28.10
2019-05-01T09:21:45.968Z,26.17
2019-05-01T09:24:12.870Z,26.62
2019-05-01T09:26:53.155Z,26.12
2019-05-01T09:29:26.148Z,25.25
2019-05-01T09:31:53.552Z,23.42
2019-05-01T09:34:21.080Z,25.77
2019-05-01T09:36:48.192Z,25.27
2019-05-01T09:39:16.071Z,23.90
2019-05-01T09:41:47.422Z,25.60
2019-05-01T09:44:12.535Z,26.57
2019-05-01T09:46:39.402Z,25.88
2019-05-01T09:49:06.675Z,25.90
2019-05-01T09:51:58.873Z,27.27
2019-05-01T09:54:35.568Z,25.30
2019-05-01T09:57:02.460Z,26.55
2019-05-01T09:59:29.395Z,25.12
2019-05-01T10:01:56.504Z,26.52
2019-05-01T10:04:25.303Z,24.90
2019-05-01T10:06:54.054Z,24.57
2019-05-01T10:09:21.044Z,24.98
2019-05-01T10:11:48.042Z,24.80
2019-05-01T10:14:14.914Z,26.37
2019-05-01T10:16:41.713Z,28.30
2019-05-01T10:19:08.508Z,25.30
2019-05-01T10:21:35.497Z,25.45
2019-05-01T10:24:02.372Z,26.52
2019-05-01T10:26:31.097Z,25.57
2019-05-01T10:29:16.043Z,25.40
2019-05-01T10:32:16.876Z,26.82
2019-05-01T10:34:52.537Z,30.02
2019-05-01T10:37:19.595Z,27.80
2019-05-01T10:39:50.203Z,24.72
2019-05-01T10:42:15.429Z,25.80
2019-05-01T10:44:42.301Z,24.00
2019-05-01T10:47:09.336Z,25.48
2019-05-01T10:49:36.380Z,23.62
2019-05-01T10:52:13.633Z,24.65
2019-05-01T10:54:32.393Z,21.50
2019-05-01T10:57:03.441Z,22.52
2019-05-01T10:59:28.708Z,22.70
2019-05-01T11:01:58.160Z,22.65
2019-05-01T11:04:25.289Z,20.90
2019-05-01T11:06:52.503Z,22.27
2019-05-01T11:09:19.486Z,22.35
2019-05-01T11:11:46.380Z,22.32
2019-05-01T11:14:13.791Z,23.57
2019-05-01T11:16:40.579Z,20.55
2019-05-01T11:19:07.797Z,27.75
2019-05-01T11:21:34.714Z,26.12
2019-05-01T11:24:01.709Z,23.40
2019-05-01T11:26:28.612Z,18.25
2019-05-01T11:28:55.585Z,19.07
2019-05-01T11:31:28.022Z,17.20
2019-05-01T11:34:20.045Z,16.93
2019-05-01T11:36:59.001Z,15.83
2019-05-01T11:39:35.907Z,17.62
2019-05-01T11:42:03.980Z,19.45
2019-05-01T11:44:31.218Z,18.30
2019-05-01T11:46:58.090Z,19.07
2019-05-01T11:49:24.976Z,21.33
2019-05-01T11:51:51.732Z,18.85
2019-05-01T11:54:18.628Z,20.30
2019-05-01T11:56:45.399Z,19.57
2019-05-01T11:59:12.555Z,18.67
2019-05-01T12:01:39.469Z,17.77
2019-05-01T12:04:06.353Z,18.40
2019-05-01T12:06:33.230Z,18.50
2019-05-01T12:09:00.019Z,20.02
2019-05-01T12:11:29.320Z,19.30
2019-05-01T12:13:56.549Z,17.60
2019-05-01T12:16:41.653Z,19.35
2019-05-01T12:19:08.641Z,16.17
2019-05-01T12:21:35.637Z,17.80
2019-05-01T12:24:02.747Z,18.15
2019-05-01T12:26:29.530Z,17.40
2019-05-01T12:28:56.328Z,16.55
2019-05-01T12:31:23.229Z,15.63
2019-05-01T12:33:50.345Z,16.85
2019-05-01T12:36:17.503Z,16.37
2019-05-01T12:38:44.669Z,17.42
2019-05-01T12:41:32.957Z,16.82
2019-05-01T12:44:00.103Z,15.98
2019-05-01T12:46:45.541Z,16.42
2019-05-01T12:49:12.442Z,15.55
2019-05-01T12:51:40.866Z,13.62
2019-05-01T12:54:13.840Z,13.15
2019-05-01T12:56:46.853Z,14.20
2019-05-01T12:59:13.607Z,16.27
2019-05-01T13:01:40.510Z,16.60
2019-05-01T13:04:07.370Z,19.95
2019-05-01T13:06:34.254Z,25.40
2019-05-01T13:09:01.344Z,18.17
2019-05-01T13:11:28.245Z,17.55
2019-05-01T13:13:55.134Z,21.60
2019-05-01T13:16:22.021Z,19.17
2019-05-01T13:18:48.986Z,18.55
2019-05-01T13:21:15.774Z,20.25
2019-05-01T13:23:43.241Z,20.30
2019-05-01T13:26:18.379Z,20.00
2019-05-01T13:28:52.892Z,20.43
2019-05-01T13:31:30.338Z,17.62
2019-05-01T13:33:57.238Z,18.50
2019-05-01T13:36:24.621Z,16.97
2019-05-01T13:38:51.583Z,17.80
2019-05-01T13:41:18.585Z,17.37
2019-05-01T13:43:45.691Z,18.82
2019-05-01T13:46:12.959Z,18.80
2019-05-01T13:48:39.865Z,20.20
2019-05-01T13:51:07.023Z,18.35
2019-05-01T13:53:33.880Z,18.20
2019-05-01T13:56:00.970Z,17.70
2019-05-01T13:58:28.104Z,17.25
2019-05-01T14:00:55.021Z,18.17
2019-05-01T14:03:21.890Z,14.98
2019-05-01T14:05:48.906Z,17.32
2019-05-01T14:08:15.787Z,16.17
2019-05-01T14:10:42.678Z,19.30
2019-05-01T14:13:09.463Z,18.37
2019-05-01T14:15:36.582Z,17.05
2019-05-01T14:18:03.770Z,17.62
2019-05-01T14:21:02.547Z,17.50
2019-05-01T14:23:49.450Z,14.93
2019-05-01T14:26:16.673Z,14.87
2019-05-01T14:28:43.444Z,15.10
2019-05-01T14:31:10.510Z,14.65
2019-05-01T14:33:37.340Z,15.72
2019-05-01T14:36:04.434Z,15.70
2019-05-01T14:38:31.715Z,14.83
2019-05-01T14:40:58.723Z,13.90
2019-05-01T14:43:25.727Z,14.03
2019-05-01T14:45:52.496Z,13.30
2019-05-01T14:48:19.430Z,13.75
2019-05-01T14:50:46.389Z,14.10
2019-05-01T14:53:13.291Z,14.38
2019-05-01T14:55:41.479Z,16.37
2019-05-01T14:58:08.464Z,15.05
2019-05-01T15:00:35.683Z,13.90
2019-05-01T15:03:03.214Z,13.68
2019-05-01T15:05:30.080Z,14.15
2019-05-01T15:07:57.614Z,17.02
2019-05-01T15:10:24.393Z,15.03
2019-05-01T15:12:53.542Z,11.73
2019-05-01T15:15:47.420Z,14.33
2019-05-01T15:18:20.841Z,13.60
2019-05-01T15:20:48.111Z,16.25
2019-05-01T15:23:15.582Z,14.40
2019-05-01T15:25:42.425Z,13.00
2019-05-01T15:28:09.277Z,14.45
2019-05-01T15:30:36.469Z,13.25
2019-05-01T15:33:03.719Z,13.90
2019-05-01T15:35:30.691Z,15.80
2019-05-01T15:37:57.993Z,12.63
2019-05-01T15:40:36.525Z,15.63
2019-05-01T15:43:23.576Z,16.32
2019-05-01T15:45:50.888Z,14.75
2019-05-01T15:48:17.916Z,15.45
2019-05-01T15:50:45.145Z,16.95
2019-05-01T15:53:11.942Z,15.10
2019-05-01T15:55:38.826Z,15.55
2019-05-01T15:58:06.153Z,14.10
2019-05-01T16:00:33.295Z,14.95
2019-05-01T16:03:00.151Z,14.28
2019-05-01T16:05:27.217Z,14.10
2019-05-01T16:08:03.500Z,16.42
2019-05-01T16:10:29.230Z,16.15
2019-05-01T16:13:00.909Z,15.03
2019-05-01T16:15:32.006Z,14.25
2019-05-01T16:17:59.197Z,16.07
2019-05-01T16:20:26.405Z,15.03
2019-05-01T16:22:54.117Z,14.98
2019-05-01T16:25:21.380Z,14.80
2019-05-01T16:27:48.624Z,14.07
2019-05-01T16:30:19.787Z,14.87
2019-05-01T16:32:46.773Z,15.65
2019-05-01T16:35:13.845Z,14.73
2019-05-01T16:37:40.851Z,16.20
2019-05-01T16:40:19.671Z,16.48
2019-05-01T16:42:46.640Z,17.90
2019-05-01T16:45:14.033Z,30.52
2019-05-01T16:47:40.792Z,19.73
2019-05-01T16:50:08.487Z,17.85
2019-05-01T16:52:37.257Z,15.45
2019-05-01T16:55:05.373Z,21.73
2019-05-01T16:57:32.361Z,21.07
2019-05-01T16:59:59.327Z,16.30
2019-05-01T17:02:46.302Z,20.95
2019-05-01T17:05:24.886Z,17.40
2019-05-01T17:08:11.310Z,18.02
2019-05-01T17:10:40.174Z,17.40
2019-05-01T17:13:07.601Z,16.40
2019-05-01T17:15:40.277Z,46.73
2019-05-01T17:18:07.656Z,339.85
2019-05-01T17:20:34.475Z,298.70
2019-05-01T17:23:01.349Z,72.75
2019-05-01T17:25:29.597Z,65.05
2019-05-01T17:27:56.654Z,22.52
2019-05-01T17:30:40.377Z,45.08
2019-05-01T17:33:07.813Z,17.02
2019-05-01T17:35:36.847Z,15.38
2019-05-01T17:38:03.731Z,15.05
2019-05-01T17:40:30.838Z,14.33
2019-05-01T17:42:58.108Z,14.00
2019-05-01T17:45:24.994Z,13.83
2019-05-01T17:47:52.827Z,16.40
2019-05-01T17:50:22.261Z,14.70
2019-05-01T17:52:49.467Z,13.20
2019-05-01T17:55:16.476Z,14.03
2019-05-01T17:57:43.723Z,13.45
2019-05-01T18:00:33.867Z,13.32
2019-05-01T18:03:07.594Z,15.10
2019-05-01T18:06:00.797Z,16.48
2019-05-01T18:08:24.944Z,17.27
2019-05-01T18:10:52.004Z,15.13
2019-05-01T18:13:19.295Z,13.48
2019-05-01T18:15:46.291Z,13.03
2019-05-01T18:18:15.061Z,13.22
2019-05-01T18:20:43.571Z,12.80
2019-05-01T18:23:22.138Z,12.82
2019-05-01T18:26:04.781Z,15.13
2019-05-01T18:28:37.319Z,13.93
2019-05-01T18:31:07.562Z,13.48
2019-05-01T18:33:34.345Z,12.88
2019-05-01T18:36:01.441Z,13.80
2019-05-01T18:38:37.820Z,13.48
2019-05-01T18:41:09.215Z,15.70
2019-05-01T18:43:36.065Z,20.37
2019-05-01T18:46:03.839Z,18.00
2019-05-01T18:48:30.884Z,22.00
2019-05-01T18:50:57.996Z,17.55
2019-05-01T18:53:25.334Z,16.02
2019-05-01T18:55:52.205Z,14.00
2019-05-01T18:58:19.210Z,14.40
2019-05-01T19:00:46.744Z,13.80
2019-05-01T19:03:14.009Z,15.85
2019-05-01T19:05:43.147Z,17.25
2019-05-01T19:08:10.672Z,17.42
2019-05-01T19:10:38.141Z,17.77
2019-05-01T19:13:05.814Z,15.10
2019-05-01T19:15:32.753Z,15.88
2019-05-01T19:17:59.763Z,14.93
2019-05-01T19:20:27.168Z,18.90
2019-05-01T19:22:54.189Z,14.10
2019-05-01T19:25:21.746Z,15.58
2019-05-01T19:27:48.970Z,14.60
2019-05-01T19:30:16.845Z,16.20
2019-05-01T19:32:44.571Z,16.32
2019-05-01T19:35:11.882Z,14.73
2019-05-01T19:37:39.143Z,15.80
2019-05-01T19:40:06.726Z,17.10
2019-05-01T19:42:34.103Z,16.52
2019-05-01T19:45:01.426Z,15.55
2019-05-01T19:47:28.404Z,17.00
2019-05-01T19:49:56.033Z,16.05
2019-05-01T19:52:22.947Z,17.55
2019-05-01T19:54:50.071Z,15.65
2019-05-01T19:57:17.435Z,17.75
2019-05-01T19:59:44.566Z,17.02
2019-05-01T20:02:12.375Z,17.07
2019-05-01T20:04:39.233Z,16.85
2019-05-01T20:07:10.690Z,16.27
2019-05-01T20:09:35.236Z,16.55
2019-05-01T20:12:02.657Z,17.20
2019-05-01T20:14:29.461Z,17.60
2019-05-01T20:16:56.509Z,18.73
2019-05-01T20:19:23.797Z,17.70
2019-05-01T20:21:50.959Z,19.07
2019-05-01T20:24:19.358Z,18.20
2019-05-01T20:26:46.486Z,18.40
2019-05-01T20:29:13.640Z,18.27
2019-05-01T20:31:40.600Z,19.73
2019-05-01T20:34:12.119Z,20.85
2019-05-01T20:36:36.680Z,19.48
2019-05-01T20:39:05.531Z,18.82
2019-05-01T20:41:32.310Z,20.60
2019-05-01T20:43:59.631Z,20.35
2019-05-01T20:46:28.045Z,20.85
2019-05-01T20:49:00.516Z,21.05
2019-05-01T20:51:38.831Z,20.35
2019-05-01T20:54:06.441Z,20.57
2019-05-01T20:56:39.404Z,21.65
2019-05-01T20:59:06.539Z,21.35
2019-05-01T21:01:33.565Z,20.00
2019-05-01T21:04:20.213Z,21.45
2019-05-01T21:07:06.932Z,21.00
2019-05-01T21:09:46.891Z,21.73
2019-05-01T21:12:05.519Z,21.15
2019-05-01T21:14:32.841Z,21.10
2019-05-01T21:16:59.835Z,21.42
2019-05-01T21:19:28.748Z,21.68
2019-05-01T21:21:55.400Z,24.47
2019-05-01T21:24:23.973Z,23.45
2019-05-01T21:26:50.992Z,23.85
2019-05-01T21:29:17.857Z,22.13
2019-05-01T21:31:44.641Z,23.67
2019-05-01T21:34:11.500Z,24.10
2019-05-01T21:36:38.531Z,23.10
2019-05-01T21:39:05.517Z,22.27
2019-05-01T21:41:32.922Z,22.42
2019-05-01T21:43:59.761Z,22.73
2019-05-01T21:46:26.545Z,24.25
2019-05-01T21:48:53.644Z,23.85
2019-05-01T21:51:22.614Z,24.05
2019-05-01T21:53:49.300Z,22.85
2019-05-01T21:56:16.805Z,24.52
2019-05-01T21:58:45.260Z,25.37
2019-05-01T22:01:12.510Z,24.77
2019-05-01T22:03:39.387Z,25.40
2019-05-01T22:06:06.403Z,27.50
2019-05-01T22:08:34.469Z,25.85
2019-05-01T22:11:03.640Z,28.55
2019-05-01T22:13:30.708Z,24.57
2019-05-01T22:16:07.310Z,26.10
2019-05-01T22:18:39.975Z,26.05
2019-05-01T22:21:26.520Z,25.10
2019-05-01T22:24:13.991Z,24.17
2019-05-01T22:26:44.241Z,26.80
2019-05-01T22:29:13.156Z,26.15
2019-05-01T22:31:59.819Z,24.72
2019-05-01T22:34:33.448Z,24.13
2019-05-01T22:37:00.877Z,24.53
2019-05-01T22:39:29.633Z,23.02
2019-05-01T22:41:56.756Z,22.93
2019-05-01T22:44:23.729Z,23.97
2019-05-01T22:55:39.542Z,25.17
2019-05-01T22:58:07.058Z,26.13
2019-05-01T23:00:52.959Z,26.45
2019-05-01T23:03:40.479Z,26.87
2019-05-01T23:06:06.213Z,28.33
2019-05-01T23:08:34.711Z,25.63
2019-05-01T23:11:02.123Z,24.87
2019-05-01T23:13:29.599Z,26.47
2019-05-01T23:15:58.098Z,25.43
2019-05-01T23:18:25.647Z,26.03
2019-05-01T23:20:52.981Z,25.90
2019-05-01T23:23:20.520Z,25.77
2019-05-01T23:25:47.846Z,26.20
2019-05-01T23:28:15.308Z,27.10
2019-05-01T23:30:42.629Z,26.23
2019-05-01T23:33:10.180Z,25.55
2019-05-01T23:35:37.845Z,24.73
2019-05-01T23:38:05.119Z,26.87
2019-05-01T23:40:32.900Z,26.33
2019-05-01T23:43:00.279Z,25.07
2019-05-01T23:45:27.636Z,26.70
2019-05-01T23:47:55.398Z,26.20
2019-05-01T23:50:22.687Z,28.83
2019-05-01T23:52:50.135Z,26.57
2019-05-01T23:55:17.517Z,27.43
2019-05-01T23:57:44.952Z,30.13
